sensor_id;sensor_type;location;lat;lon;timestamp;P1;durP1;ratioP1;P2;durP2;ratioP2
38611;SDS011;24368;52.156;20.788;2023-09-07T00:04:50;11.20;;;8.50;;
38611;SDS011;24368;52.156;20.788;2023-09-07T00:09:51;9.30;;;8.10;;
38611;SDS011;24368;52.156;20.788;2023-09-07T00:14:54;10.40;;;8.30;;
38611;SDS011;24368;52.156;20.788;2023-09-07T00:19:56;10.80;;;8.30;;
38611;SDS011;24368;52.156;20.788;2023-09-07T00:24:58;13.00;;;9.20;;
38611;SDS011;24368;52.156;20.788;2023-09-07T00:30:00;9.00;;;8.10;;
38611;SDS011;24368;52.156;20.788;2023-09-07T00:35:05;9.70;;;7.10;;
38611;SDS011;24368;52.156;20.788;2023-09-07T00:40:07;8.10;;;6.80;;
38611;SDS011;24368;52.156;20.788;2023-09-07T00:45:11;9.00;;;7.90;;
38611;SDS011;24368;52.156;20.788;2023-09-07T00:50:13;9.40;;;7.60;;
38611;SDS011;24368;52.156;20.788;2023-09-07T00:55:17;8.80;;;7.20;;
38611;SDS011;24368;52.156;20.788;2023-09-07T01:00:18;9.20;;;7.30;;
38611;SDS011;24368;52.156;20.788;2023-09-07T01:05:20;8.80;;;7.00;;
38611;SDS011;24368;52.156;20.788;2023-09-07T01:10:25;10.80;;;7.60;;
38611;SDS011;24368;52.156;20.788;2023-09-07T01:15:26;8.50;;;7.30;;
38611;SDS011;24368;52.156;20.788;2023-09-07T01:20:27;10.70;;;7.90;;
38611;SDS011;24368;52.156;20.788;2023-09-07T01:25:31;8.80;;;7.90;;
38611;SDS011;24368;52.156;20.788;2023-09-07T01:30:34;8.80;;;8.00;;
38611;SDS011;24368;52.156;20.788;2023-09-07T01:35:39;8.00;;;7.20;;
38611;SDS011;24368;52.156;20.788;2023-09-07T01:40:42;8.70;;;7.90;;
38611;SDS011;24368;52.156;20.788;2023-09-07T01:45:43;8.00;;;7.30;;
38611;SDS011;24368;52.156;20.788;2023-09-07T01:50:44;7.90;;;7.10;;
38611;SDS011;24368;52.156;20.788;2023-09-07T01:55:45;9.30;;;8.40;;
38611;SDS011;24368;52.156;20.788;2023-09-07T02:00:46;9.30;;;8.30;;
38611;SDS011;24368;52.156;20.788;2023-09-07T02:05:47;9.80;;;8.80;;
38611;SDS011;24368;52.156;20.788;2023-09-07T02:10:48;9.00;;;8.30;;
38611;SDS011;24368;52.156;20.788;2023-09-07T02:15:49;7.70;;;7.10;;
38611;SDS011;24368;52.156;20.788;2023-09-07T02:20:51;7.30;;;6.70;;
38611;SDS011;24368;52.156;20.788;2023-09-07T02:33:29;10.00;;;7.80;;
38611;SDS011;24368;52.156;20.788;2023-09-07T02:38:31;9.30;;;7.80;;
38611;SDS011;24368;52.156;20.788;2023-09-07T02:43:33;8.50;;;7.60;;
38611;SDS011;24368;52.156;20.788;2023-09-07T02:48:35;8.60;;;7.80;;
38611;SDS011;24368;52.156;20.788;2023-09-07T02:53:37;11.80;;;7.90;;
38611;SDS011;24368;52.156;20.788;2023-09-07T02:58:38;8.90;;;8.00;;
38611;SDS011;24368;52.156;20.788;2023-09-07T03:03:41;9.70;;;7.80;;
38611;SDS011;24368;52.156;20.788;2023-09-07T03:08:44;10.00;;;8.40;;
38611;SDS011;24368;52.156;20.788;2023-09-07T03:13:46;12.70;;;7.80;;
38611;SDS011;24368;52.156;20.788;2023-09-07T03:18:48;9.80;;;7.50;;
38611;SDS011;24368;52.156;20.788;2023-09-07T03:23:50;8.40;;;7.30;;
38611;SDS011;24368;52.156;20.788;2023-09-07T03:28:52;9.20;;;8.10;;
38611;SDS011;24368;52.156;20.788;2023-09-07T03:33:53;9.80;;;8.80;;
38611;SDS011;24368;52.156;20.788;2023-09-07T03:38:56;9.90;;;8.90;;
38611;SDS011;24368;52.156;20.788;2023-09-07T03:43:57;13.00;;;8.20;;
38611;SDS011;24368;52.156;20.788;2023-09-07T03:49:00;9.50;;;7.60;;
38611;SDS011;24368;52.156;20.788;2023-09-07T03:54:02;9.20;;;8.20;;
38611;SDS011;24368;52.156;20.788;2023-09-07T03:59:04;8.70;;;7.80;;
38611;SDS011;24368;52.156;20.788;2023-09-07T04:04:06;11.30;;;8.30;;
38611;SDS011;24368;52.156;20.788;2023-09-07T04:09:07;11.50;;;9.30;;
38611;SDS011;24368;52.156;20.788;2023-09-07T04:14:09;8.20;;;7.40;;
38611;SDS011;24368;52.156;20.788;2023-09-07T04:19:11;8.60;;;7.80;;
38611;SDS011;24368;52.156;20.788;2023-09-07T04:24:12;9.00;;;8.00;;
38611;SDS011;24368;52.156;20.788;2023-09-07T04:29:15;10.50;;;8.30;;
38611;SDS011;24368;52.156;20.788;2023-09-07T04:34:17;21.90;;;9.90;;
38611;SDS011;24368;52.156;20.788;2023-09-07T04:39:19;11.80;;;9.00;;
38611;SDS011;24368;52.156;20.788;2023-09-07T04:44:21;14.70;;;8.70;;
38611;SDS011;24368;52.156;20.788;2023-09-07T04:49:23;12.00;;;9.50;;
38611;SDS011;24368;52.156;20.788;2023-09-07T04:54:26;9.70;;;8.10;;
38611;SDS011;24368;52.156;20.788;2023-09-07T04:59:28;9.90;;;8.80;;
38611;SDS011;24368;52.156;20.788;2023-09-07T05:04:30;9.70;;;8.30;;
38611;SDS011;24368;52.156;20.788;2023-09-07T05:09:32;12.50;;;9.50;;
38611;SDS011;24368;52.156;20.788;2023-09-07T05:14:34;11.30;;;10.00;;
38611;SDS011;24368;52.156;20.788;2023-09-07T05:19:36;12.50;;;10.70;;
38611;SDS011;24368;52.156;20.788;2023-09-07T05:24:38;17.40;;;11.10;;
38611;SDS011;24368;52.156;20.788;2023-09-07T05:29:40;12.30;;;11.00;;
38611;SDS011;24368;52.156;20.788;2023-09-07T05:34:42;15.00;;;12.40;;
38611;SDS011;24368;52.156;20.788;2023-09-07T05:39:44;14.70;;;12.50;;
38611;SDS011;24368;52.156;20.788;2023-09-07T05:44:46;16.70;;;12.30;;
38611;SDS011;24368;52.156;20.788;2023-09-07T05:49:47;15.50;;;12.60;;
38611;SDS011;24368;52.156;20.788;2023-09-07T05:54:49;16.50;;;14.30;;
38611;SDS011;24368;52.156;20.788;2023-09-07T05:59:51;15.40;;;13.80;;
38611;SDS011;24368;52.156;20.788;2023-09-07T06:04:53;15.50;;;14.00;;
38611;SDS011;24368;52.156;20.788;2023-09-07T06:09:55;22.40;;;14.30;;
38611;SDS011;24368;52.156;20.788;2023-09-07T06:15:00;22.10;;;14.70;;
38611;SDS011;24368;52.156;20.788;2023-09-07T06:20:03;19.80;;;14.30;;
38611;SDS011;24368;52.156;20.788;2023-09-07T06:25:07;18.10;;;14.70;;
38611;SDS011;24368;52.156;20.788;2023-09-07T06:30:11;23.60;;;13.80;;
38611;SDS011;24368;52.156;20.788;2023-09-07T06:35:13;28.10;;;17.70;;
38611;SDS011;24368;52.156;20.788;2023-09-07T06:40:15;27.20;;;16.10;;
38611;SDS011;24368;52.156;20.788;2023-09-07T06:45:19;24.80;;;13.90;;
38611;SDS011;24368;52.156;20.788;2023-09-07T06:50:21;23.40;;;16.30;;
38611;SDS011;24368;52.156;20.788;2023-09-07T06:55:23;29.20;;;17.50;;
38611;SDS011;24368;52.156;20.788;2023-09-07T07:00:25;33.80;;;20.00;;
38611;SDS011;24368;52.156;20.788;2023-09-07T07:05:30;28.10;;;19.00;;
38611;SDS011;24368;52.156;20.788;2023-09-07T07:10:36;29.00;;;19.10;;
38611;SDS011;24368;52.156;20.788;2023-09-07T07:15:37;30.50;;;20.80;;
38611;SDS011;24368;52.156;20.788;2023-09-07T07:20:41;28.80;;;19.50;;
38611;SDS011;24368;52.156;20.788;2023-09-07T07:25:45;29.50;;;19.30;;
38611;SDS011;24368;52.156;20.788;2023-09-07T07:30:47;25.40;;;18.30;;
38611;SDS011;24368;52.156;20.788;2023-09-07T07:35:49;24.50;;;16.40;;
38611;SDS011;24368;52.156;20.788;2023-09-07T07:40:51;26.90;;;16.00;;
38611;SDS011;24368;52.156;20.788;2023-09-07T07:45:54;20.20;;;15.00;;
38611;SDS011;24368;52.156;20.788;2023-09-07T07:50:56;18.00;;;12.90;;
38611;SDS011;24368;52.156;20.788;2023-09-07T07:55:58;18.80;;;12.10;;
38611;SDS011;24368;52.156;20.788;2023-09-07T08:01:01;15.30;;;13.20;;
38611;SDS011;24368;52.156;20.788;2023-09-07T08:06:03;19.40;;;13.80;;
38611;SDS011;24368;52.156;20.788;2023-09-07T08:11:05;20.40;;;13.50;;
38611;SDS011;24368;52.156;20.788;2023-09-07T08:16:07;25.80;;;13.20;;
38611;SDS011;24368;52.156;20.788;2023-09-07T08:21:09;18.00;;;13.00;;
38611;SDS011;24368;52.156;20.788;2023-09-07T08:26:11;15.00;;;12.50;;
38611;SDS011;24368;52.156;20.788;2023-09-07T08:31:14;19.10;;;12.20;;
38611;SDS011;24368;52.156;20.788;2023-09-07T08:36:23;23.40;;;13.30;;
38611;SDS011;24368;52.156;20.788;2023-09-07T08:41:25;26.70;;;12.80;;
38611;SDS011;24368;52.156;20.788;2023-09-07T08:46:28;21.20;;;12.30;;
38611;SDS011;24368;52.156;20.788;2023-09-07T08:51:31;21.20;;;12.70;;
38611;SDS011;24368;52.156;20.788;2023-09-07T08:56:34;19.90;;;12.00;;
38611;SDS011;24368;52.156;20.788;2023-09-07T09:01:36;14.10;;;10.90;;
38611;SDS011;24368;52.156;20.788;2023-09-07T09:06:38;14.40;;;10.30;;
38611;SDS011;24368;52.156;20.788;2023-09-07T09:11:40;15.20;;;10.80;;
38611;SDS011;24368;52.156;20.788;2023-09-07T09:16:46;9.40;;;8.40;;
38611;SDS011;24368;52.156;20.788;2023-09-07T09:21:50;11.60;;;10.30;;
38611;SDS011;24368;52.156;20.788;2023-09-07T09:26:52;9.10;;;8.20;;
38611;SDS011;24368;52.156;20.788;2023-09-07T09:31:54;8.80;;;7.90;;
38611;SDS011;24368;52.156;20.788;2023-09-07T09:36:56;8.30;;;7.50;;
38611;SDS011;24368;52.156;20.788;2023-09-07T09:41:58;8.30;;;7.60;;
38611;SDS011;24368;52.156;20.788;2023-09-07T09:47:00;9.00;;;8.30;;
38611;SDS011;24368;52.156;20.788;2023-09-07T09:52:02;8.60;;;7.50;;
38611;SDS011;24368;52.156;20.788;2023-09-07T09:57:06;8.00;;;7.40;;
38611;SDS011;24368;52.156;20.788;2023-09-07T10:02:07;8.80;;;6.40;;
38611;SDS011;24368;52.156;20.788;2023-09-07T10:07:10;8.00;;;6.80;;
38611;SDS011;24368;52.156;20.788;2023-09-07T10:12:12;6.90;;;6.20;;
38611;SDS011;24368;52.156;20.788;2023-09-07T10:17:23;7.40;;;5.50;;
38611;SDS011;24368;52.156;20.788;2023-09-07T10:22:25;5.90;;;5.30;;
38611;SDS011;24368;52.156;20.788;2023-09-07T10:27:26;8.80;;;5.40;;
38611;SDS011;24368;52.156;20.788;2023-09-07T10:32:39;7.30;;;5.30;;
38611;SDS011;24368;52.156;20.788;2023-09-07T10:37:44;6.10;;;5.50;;
38611;SDS011;24368;52.156;20.788;2023-09-07T10:42:48;5.80;;;5.20;;
38611;SDS011;24368;52.156;20.788;2023-09-07T10:47:50;6.50;;;5.10;;
38611;SDS011;24368;52.156;20.788;2023-09-07T10:52:53;6.40;;;5.10;;
38611;SDS011;24368;52.156;20.788;2023-09-07T10:57:55;5.90;;;5.40;;
38611;SDS011;24368;52.156;20.788;2023-09-07T11:02:57;5.80;;;4.90;;
38611;SDS011;24368;52.156;20.788;2023-09-07T11:07:59;6.10;;;5.00;;
38611;SDS011;24368;52.156;20.788;2023-09-07T11:13:05;5.00;;;4.60;;
38611;SDS011;24368;52.156;20.788;2023-09-07T11:18:08;6.60;;;4.70;;
38611;SDS011;24368;52.156;20.788;2023-09-07T11:23:10;4.60;;;4.10;;
38611;SDS011;24368;52.156;20.788;2023-09-07T11:28:12;4.20;;;3.80;;
38611;SDS011;24368;52.156;20.788;2023-09-07T11:33:16;4.60;;;4.20;;
38611;SDS011;24368;52.156;20.788;2023-09-07T11:38:18;5.00;;;4.50;;
38611;SDS011;24368;52.156;20.788;2023-09-07T11:43:20;4.80;;;4.40;;
38611;SDS011;24368;52.156;20.788;2023-09-07T11:48:26;4.40;;;4.00;;
38611;SDS011;24368;52.156;20.788;2023-09-07T11:53:35;5.50;;;4.30;;
38611;SDS011;24368;52.156;20.788;2023-09-07T11:58:52;5.00;;;4.50;;
38611;SDS011;24368;52.156;20.788;2023-09-07T12:03:54;4.20;;;3.80;;
38611;SDS011;24368;52.156;20.788;2023-09-07T12:09:03;4.30;;;3.90;;
38611;SDS011;24368;52.156;20.788;2023-09-07T12:19:33;4.40;;;4.00;;
38611;SDS011;24368;52.156;20.788;2023-09-07T12:24:45;22.80;;;20.80;;
38611;SDS011;24368;52.156;20.788;2023-09-07T12:29:47;17.80;;;16.20;;
38611;SDS011;24368;52.156;20.788;2023-09-07T12:34:50;6.40;;;5.90;;
38611;SDS011;24368;52.156;20.788;2023-09-07T12:39:55;5.00;;;4.50;;
38611;SDS011;24368;52.156;20.788;2023-09-07T12:44:56;4.30;;;3.90;;
38611;SDS011;24368;52.156;20.788;2023-09-07T12:49:58;22.20;;;20.20;;
38611;SDS011;24368;52.156;20.788;2023-09-07T12:55:09;6.40;;;5.90;;
38611;SDS011;24368;52.156;20.788;2023-09-07T13:00:25;8.70;;;6.60;;
38611;SDS011;24368;52.156;20.788;2023-09-07T13:05:27;8.60;;;6.20;;
38611;SDS011;24368;52.156;20.788;2023-09-07T13:10:32;6.30;;;5.80;;
38611;SDS011;24368;52.156;20.788;2023-09-07T13:15:41;4.80;;;3.60;;
38611;SDS011;24368;52.156;20.788;2023-09-07T13:20:52;5.50;;;5.00;;
38611;SDS011;24368;52.156;20.788;2023-09-07T13:26:05;10.20;;;9.40;;
38611;SDS011;24368;52.156;20.788;2023-09-07T13:31:25;7.60;;;6.90;;
38611;SDS011;24368;52.156;20.788;2023-09-07T13:36:41;8.30;;;7.50;;
38611;SDS011;24368;52.156;20.788;2023-09-07T13:41:51;3.80;;;3.50;;
38611;SDS011;24368;52.156;20.788;2023-09-07T13:46:55;13.80;;;12.70;;
38611;SDS011;24368;52.156;20.788;2023-09-07T13:51:57;28.70;;;26.10;;
38611;SDS011;24368;52.156;20.788;2023-09-07T13:56:59;13.40;;;12.20;;
38611;SDS011;24368;52.156;20.788;2023-09-07T14:02:03;6.80;;;6.30;;
38611;SDS011;24368;52.156;20.788;2023-09-07T14:07:05;6.00;;;5.50;;
38611;SDS011;24368;52.156;20.788;2023-09-07T14:12:07;6.20;;;5.60;;
38611;SDS011;24368;52.156;20.788;2023-09-07T14:17:19;6.60;;;5.10;;
38611;SDS011;24368;52.156;20.788;2023-09-07T14:22:24;5.30;;;3.70;;
38611;SDS011;24368;52.156;20.788;2023-09-07T14:27:26;5.80;;;3.90;;
38611;SDS011;24368;52.156;20.788;2023-09-07T14:32:28;4.40;;;4.00;;
38611;SDS011;24368;52.156;20.788;2023-09-07T14:37:30;5.00;;;4.50;;
38611;SDS011;24368;52.156;20.788;2023-09-07T14:42:31;6.80;;;3.80;;
38611;SDS011;24368;52.156;20.788;2023-09-07T14:47:33;5.90;;;4.40;;
38611;SDS011;24368;52.156;20.788;2023-09-07T14:52:36;6.10;;;5.60;;
38611;SDS011;24368;52.156;20.788;2023-09-07T14:57:42;6.70;;;6.20;;
38611;SDS011;24368;52.156;20.788;2023-09-07T15:02:44;5.40;;;4.40;;
38611;SDS011;24368;52.156;20.788;2023-09-07T15:07:46;4.90;;;4.00;;
38611;SDS011;24368;52.156;20.788;2023-09-07T15:12:48;13.30;;;12.00;;
38611;SDS011;24368;52.156;20.788;2023-09-07T15:17:50;10.20;;;9.30;;
38611;SDS011;24368;52.156;20.788;2023-09-07T15:22:51;5.60;;;5.10;;
38611;SDS011;24368;52.156;20.788;2023-09-07T15:27:53;4.60;;;3.20;;
38611;SDS011;24368;52.156;20.788;2023-09-07T15:32:56;3.90;;;3.40;;
38611;SDS011;24368;52.156;20.788;2023-09-07T15:37:57;6.90;;;3.00;;
38611;SDS011;24368;52.156;20.788;2023-09-07T15:42:59;3.50;;;2.40;;
38611;SDS011;24368;52.156;20.788;2023-09-07T15:48:01;3.50;;;3.20;;
38611;SDS011;24368;52.156;20.788;2023-09-07T15:53:03;30.00;;;27.30;;
38611;SDS011;24368;52.156;20.788;2023-09-07T15:58:08;32.10;;;29.40;;
38611;SDS011;24368;52.156;20.788;2023-09-07T16:03:10;11.30;;;10.40;;
38611;SDS011;24368;52.156;20.788;2023-09-07T16:08:13;6.60;;;6.00;;
38611;SDS011;24368;52.156;20.788;2023-09-07T16:13:23;4.40;;;4.00;;
38611;SDS011;24368;52.156;20.788;2023-09-07T16:18:31;4.00;;;3.50;;
38611;SDS011;24368;52.156;20.788;2023-09-07T16:23:33;4.00;;;3.10;;
38611;SDS011;24368;52.156;20.788;2023-09-07T16:28:34;3.00;;;2.80;;
38611;SDS011;24368;52.156;20.788;2023-09-07T16:33:36;4.10;;;2.60;;
38611;SDS011;24368;52.156;20.788;2023-09-07T16:38:38;4.60;;;3.20;;
38611;SDS011;24368;52.156;20.788;2023-09-07T16:43:40;4.80;;;4.10;;
38611;SDS011;24368;52.156;20.788;2023-09-07T16:48:44;8.70;;;4.40;;
38611;SDS011;24368;52.156;20.788;2023-09-07T16:53:46;4.60;;;4.10;;
38611;SDS011;24368;52.156;20.788;2023-09-07T16:58:47;7.40;;;4.50;;
38611;SDS011;24368;52.156;20.788;2023-09-07T17:09:49;7.60;;;4.00;;
38611;SDS011;24368;52.156;20.788;2023-09-07T17:14:53;10.40;;;6.50;;
38611;SDS011;24368;52.156;20.788;2023-09-07T17:20:10;8.10;;;5.00;;
38611;SDS011;24368;52.156;20.788;2023-09-07T17:25:14;11.30;;;5.10;;
38611;SDS011;24368;52.156;20.788;2023-09-07T17:30:20;6.70;;;3.80;;
38611;SDS011;24368;52.156;20.788;2023-09-07T17:35:25;4.80;;;3.80;;
38611;SDS011;24368;52.156;20.788;2023-09-07T17:40:27;6.60;;;5.00;;
38611;SDS011;24368;52.156;20.788;2023-09-07T17:45:29;5.10;;;4.50;;
38611;SDS011;24368;52.156;20.788;2023-09-07T17:50:31;5.20;;;4.10;;
38611;SDS011;24368;52.156;20.788;2023-09-07T17:55:34;8.60;;;4.40;;
38611;SDS011;24368;52.156;20.788;2023-09-07T18:00:35;6.50;;;3.70;;
38611;SDS011;24368;52.156;20.788;2023-09-07T18:05:37;8.20;;;5.10;;
38611;SDS011;24368;52.156;20.788;2023-09-07T18:10:39;5.20;;;4.70;;
38611;SDS011;24368;52.156;20.788;2023-09-07T18:15:42;7.70;;;4.50;;
38611;SDS011;24368;52.156;20.788;2023-09-07T18:20:44;6.80;;;5.00;;
38611;SDS011;24368;52.156;20.788;2023-09-07T18:25:46;9.70;;;4.90;;
38611;SDS011;24368;52.156;20.788;2023-09-07T18:30:48;8.10;;;5.20;;
38611;SDS011;24368;52.156;20.788;2023-09-07T18:36:03;10.70;;;5.40;;
38611;SDS011;24368;52.156;20.788;2023-09-07T18:41:07;9.70;;;5.00;;
38611;SDS011;24368;52.156;20.788;2023-09-07T18:46:10;5.80;;;4.60;;
38611;SDS011;24368;52.156;20.788;2023-09-07T18:51:12;6.10;;;5.30;;
38611;SDS011;24368;52.156;20.788;2023-09-07T18:56:13;8.00;;;5.70;;
38611;SDS011;24368;52.156;20.788;2023-09-07T19:01:16;11.40;;;5.50;;
38611;SDS011;24368;52.156;20.788;2023-09-07T19:06:19;8.60;;;5.10;;
38611;SDS011;24368;52.156;20.788;2023-09-07T19:11:22;5.00;;;4.40;;
38611;SDS011;24368;52.156;20.788;2023-09-07T19:16:24;6.70;;;4.70;;
38611;SDS011;24368;52.156;20.788;2023-09-07T19:21:26;5.40;;;4.90;;
38611;SDS011;24368;52.156;20.788;2023-09-07T19:26:31;5.60;;;4.90;;
38611;SDS011;24368;52.156;20.788;2023-09-07T19:31:35;5.70;;;5.10;;
38611;SDS011;24368;52.156;20.788;2023-09-07T19:36:38;6.00;;;5.50;;
38611;SDS011;24368;52.156;20.788;2023-09-07T19:41:41;9.70;;;5.40;;
38611;SDS011;24368;52.156;20.788;2023-09-07T19:46:42;5.60;;;4.40;;
38611;SDS011;24368;52.156;20.788;2023-09-07T19:51:44;5.10;;;4.60;;
38611;SDS011;24368;52.156;20.788;2023-09-07T19:56:46;5.00;;;4.10;;
38611;SDS011;24368;52.156;20.788;2023-09-07T20:01:52;4.80;;;3.80;;
38611;SDS011;24368;52.156;20.788;2023-09-07T20:06:57;5.40;;;4.50;;
38611;SDS011;24368;52.156;20.788;2023-09-07T20:11:59;5.30;;;3.90;;
38611;SDS011;24368;52.156;20.788;2023-09-07T20:17:02;6.40;;;4.60;;
38611;SDS011;24368;52.156;20.788;2023-09-07T20:22:04;5.70;;;4.50;;
38611;SDS011;24368;52.156;20.788;2023-09-07T20:27:06;6.90;;;4.30;;
38611;SDS011;24368;52.156;20.788;2023-09-07T20:32:08;4.60;;;4.20;;
38611;SDS011;24368;52.156;20.788;2023-09-07T20:37:10;4.80;;;3.90;;
38611;SDS011;24368;52.156;20.788;2023-09-07T20:42:12;5.60;;;5.10;;
38611;SDS011;24368;52.156;20.788;2023-09-07T20:47:16;6.00;;;4.80;;
38611;SDS011;24368;52.156;20.788;2023-09-07T20:52:18;8.60;;;4.80;;
38611;SDS011;24368;52.156;20.788;2023-09-07T20:57:20;8.30;;;5.60;;
38611;SDS011;24368;52.156;20.788;2023-09-07T21:02:21;5.80;;;5.20;;
38611;SDS011;24368;52.156;20.788;2023-09-07T21:07:23;7.30;;;5.60;;
38611;SDS011;24368;52.156;20.788;2023-09-07T21:12:25;6.10;;;5.50;;
38611;SDS011;24368;52.156;20.788;2023-09-07T21:17:27;7.70;;;5.70;;
38611;SDS011;24368;52.156;20.788;2023-09-07T21:22:29;6.90;;;5.50;;
38611;SDS011;24368;52.156;20.788;2023-09-07T21:27:32;5.90;;;5.20;;
38611;SDS011;24368;52.156;20.788;2023-09-07T21:32:36;8.00;;;5.20;;
38611;SDS011;24368;52.156;20.788;2023-09-07T21:37:38;6.70;;;5.70;;
38611;SDS011;24368;52.156;20.788;2023-09-07T21:42:40;6.10;;;4.90;;
38611;SDS011;24368;52.156;20.788;2023-09-07T21:47:41;7.80;;;5.70;;
38611;SDS011;24368;52.156;20.788;2023-09-07T21:52:43;8.50;;;5.90;;
38611;SDS011;24368;52.156;20.788;2023-09-07T21:57:45;6.90;;;6.20;;
38611;SDS011;24368;52.156;20.788;2023-09-07T22:02:47;6.30;;;5.70;;
38611;SDS011;24368;52.156;20.788;2023-09-07T22:07:50;7.20;;;6.10;;
38611;SDS011;24368;52.156;20.788;2023-09-07T22:12:53;7.30;;;6.50;;
38611;SDS011;24368;52.156;20.788;2023-09-07T22:18:00;6.20;;;5.60;;
38611;SDS011;24368;52.156;20.788;2023-09-07T22:23:02;6.60;;;6.10;;
38611;SDS011;24368;52.156;20.788;2023-09-07T22:28:05;6.30;;;5.40;;
38611;SDS011;24368;52.156;20.788;2023-09-07T22:33:10;6.80;;;6.00;;
38611;SDS011;24368;52.156;20.788;2023-09-07T22:38:12;7.50;;;5.90;;
38611;SDS011;24368;52.156;20.788;2023-09-07T22:43:16;6.70;;;6.10;;
38611;SDS011;24368;52.156;20.788;2023-09-07T22:48:18;7.90;;;7.00;;
38611;SDS011;24368;52.156;20.788;2023-09-07T22:53:21;7.10;;;6.40;;
38611;SDS011;24368;52.156;20.788;2023-09-07T22:58:23;7.10;;;6.50;;
38611;SDS011;24368;52.156;20.788;2023-09-07T23:03:25;6.60;;;5.90;;
38611;SDS011;24368;52.156;20.788;2023-09-07T23:08:27;7.50;;;6.30;;
38611;SDS011;24368;52.156;20.788;2023-09-07T23:18:36;8.20;;;6.30;;
38611;SDS011;24368;52.156;20.788;2023-09-07T23:23:38;8.20;;;6.50;;
38611;SDS011;24368;52.156;20.788;2023-09-07T23:28:41;7.20;;;6.60;;
38611;SDS011;24368;52.156;20.788;2023-09-07T23:33:42;6.70;;;5.90;;
38611;SDS011;24368;52.156;20.788;2023-09-07T23:38:45;7.70;;;6.80;;
38611;SDS011;24368;52.156;20.788;2023-09-07T23:43:47;8.10;;;6.90;;
38611;SDS011;24368;52.156;20.788;2023-09-07T23:48:49;10.20;;;9.20;;
38611;SDS011;24368;52.156;20.788;2023-09-07T23:53:50;8.10;;;7.40;;
38611;SDS011;24368;52.156;20.788;2023-09-07T23:58:52;7.70;;;7.00;;
